Quinby, Virginia
Current Conditions -  °F | °C
As of 9:15 AM on Monday 20 Oct 2014 (Local Time) from KMFV Reporting Station
Clear Clear  
Wind Chill: 11°   Ceiling: Unl
Heat Index: 11°   Visibility: 10mi
Dew Point:   Wind: 5mph
Humidity: 82%   Direction: 150°SSE
Pressure: 30.17"   Gusts: NA
Location:  37.55°N, 75.73°W
Report Text: KMFV 201315Z AUTO 15004KT 10SM CLR 11/08 A3017 RMK AO2
Loading
Personal Weather Stations






























Interactive Weather Map
Tropical Storm Tracking
New forecast layout! Learn more

10-Day Weather Forecast

Advertisements
Track Severe Weather on mobile